createdAt,value
2023-04-17T00:01:18.317Z,94269.97
2023-04-17T00:03:52.989Z,94269.19
2023-04-17T00:06:19.806Z,94265.16
2023-04-17T00:08:48.936Z,94267.59
2023-04-17T00:11:18.818Z,94266.75
2023-04-17T00:13:47.834Z,94266.75
2023-04-17T00:16:16.668Z,94263.06
2023-04-17T00:18:45.748Z,94261.47
2023-04-17T00:21:13.405Z,94267.59
2023-04-17T00:23:42.243Z,94259.88
2023-04-17T00:26:12.081Z,94264.38
2023-04-17T00:28:40.921Z,94265.16
2023-04-17T00:31:10.268Z,94262.28
2023-04-17T00:33:41.722Z,94265.97
2023-04-17T00:36:09.322Z,94265.16
2023-04-17T00:38:35.999Z,94260.69
2023-04-17T00:41:02.612Z,94258.28
2023-04-17T00:43:29.400Z,94259.63
2023-04-17T00:45:56.037Z,94261.72
2023-04-17T00:48:24.294Z,94254.56
2023-04-17T00:50:55.454Z,94259.09
2023-04-17T00:53:22.026Z,94259.88
2023-04-17T00:55:48.684Z,94254.56
2023-04-17T00:58:17.804Z,94249.28
2023-04-17T01:00:50.248Z,94253.78
2023-04-17T01:03:19.306Z,94245.03
2023-04-17T01:05:51.502Z,94248.50
2023-04-17T01:08:20.061Z,94251.94
2023-04-17T01:10:49.145Z,94249.53
2023-04-17T01:13:18.090Z,94245.25
2023-04-17T01:15:47.411Z,94237.09
2023-04-17T01:18:18.817Z,94240.78
2023-04-17T01:20:53.708Z,94246.06
2023-04-17T01:23:22.352Z,94244.47
2023-04-17T01:25:51.202Z,94245.25
2023-04-17T01:28:19.973Z,94244.47
2023-04-17T01:30:49.058Z,94242.38
2023-04-17T01:33:18.034Z,94239.97
2023-04-17T01:35:44.706Z,94244.47
2023-04-17T01:38:13.886Z,94247.91
2023-04-17T01:40:40.591Z,94237.59
2023-04-17T01:43:09.712Z,94231.47
2023-04-17T01:45:36.462Z,94231.25
2023-04-17T01:48:03.315Z,94225.38
2023-04-17T01:50:34.761Z,94222.47
2023-04-17T01:53:01.382Z,94227.00
2023-04-17T01:55:29.581Z,94228.59
2023-04-17T01:57:56.241Z,94224.34
2023-04-17T02:00:25.293Z,94221.69
2023-04-17T02:02:52.044Z,94217.19
2023-04-17T02:05:21.611Z,94211.09
2023-04-17T02:07:50.526Z,94213.75
2023-04-17T02:10:19.410Z,94210.56
2023-04-17T02:12:46.091Z,94206.03
2023-04-17T02:15:14.963Z,94212.72
2023-04-17T02:17:44.320Z,94209.50
2023-04-17T02:20:11.409Z,94202.59
2023-04-17T02:22:38.325Z,94210.56
2023-04-17T02:25:08.219Z,94213.19
2023-04-17T02:27:37.059Z,94210.56
2023-04-17T02:30:04.097Z,94210.28
2023-04-17T02:32:33.033Z,94213.75
2023-04-17T02:35:01.846Z,94206.31
2023-04-17T02:37:28.406Z,94213.19
2023-04-17T02:39:55.809Z,94206.31
2023-04-17T02:42:22.520Z,94213.19
2023-04-17T02:44:53.921Z,94215.84
2023-04-17T02:47:23.661Z,94213.97
2023-04-17T02:49:54.966Z,94220.88
2023-04-17T02:52:24.223Z,94213.19
2023-04-17T02:54:51.008Z,94215.59
2023-04-17T02:57:19.795Z,94210.00
2023-04-17T02:59:46.515Z,94218.50
2023-04-17T03:02:14.682Z,94211.59
2023-04-17T03:04:43.808Z,94215.28
2023-04-17T03:07:11.027Z,94214.81
2023-04-17T03:09:40.058Z,94234.38
2023-04-17T03:12:06.913Z,94216.91
2023-04-17T03:14:38.178Z,94218.50
2023-04-17T03:17:07.824Z,94222.97
2023-04-17T03:19:36.641Z,94224.84
2023-04-17T03:22:07.209Z,94222.19
2023-04-17T03:24:33.947Z,94219.00
2023-04-17T03:27:02.822Z,94220.59
2023-04-17T03:29:31.926Z,94216.34
2023-04-17T03:32:01.661Z,94220.59
2023-04-17T03:34:30.936Z,94225.88
2023-04-17T03:36:59.819Z,94225.88
2023-04-17T03:39:27.063Z,94225.88
2023-04-17T03:41:53.680Z,94226.66
2023-04-17T03:44:22.518Z,94221.03
2023-04-17T03:46:51.302Z,94226.94
2023-04-17T03:49:23.296Z,94224.28
2023-04-17T03:51:49.950Z,94226.94
2023-04-17T03:54:17.220Z,94229.56
2023-04-17T03:56:43.906Z,94229.56
2023-04-17T03:59:13.070Z,94224.75
2023-04-17T04:01:44.191Z,94227.94
2023-04-17T04:04:13.731Z,94229.56
2023-04-17T04:06:45.156Z,94225.88
2023-04-17T04:09:12.487Z,94228.75
2023-04-17T04:11:39.254Z,94225.88
2023-04-17T04:14:05.868Z,94230.59
2023-04-17T04:16:32.602Z,94227.94
2023-04-17T04:18:59.387Z,94234.88
2023-04-17T04:21:26.798Z,94226.09
2023-04-17T04:23:56.001Z,94233.22
2023-04-17T04:26:24.806Z,94233.22
2023-04-17T04:28:51.491Z,94233.22
2023-04-17T04:31:23.694Z,94232.22
2023-04-17T04:33:55.420Z,94237.75
2023-04-17T04:36:30.268Z,94238.53
2023-04-17T04:39:02.131Z,94238.53
2023-04-17T04:41:33.892Z,94231.63
2023-04-17T04:44:02.789Z,94242.22
2023-04-17T04:46:32.450Z,94247.53
2023-04-17T04:48:59.283Z,94240.63
2023-04-17T04:51:28.657Z,94244.88
2023-04-17T04:53:55.354Z,94252.81
2023-04-17T04:56:24.286Z,94245.91
2023-04-17T04:58:56.336Z,94250.97
2023-04-17T05:01:23.166Z,94250.16
2023-04-17T05:03:50.044Z,94244.88
2023-04-17T05:06:17.163Z,94245.91
2023-04-17T05:08:46.274Z,94241.44
2023-04-17T05:11:17.554Z,94246.72
2023-04-17T05:13:46.428Z,94251.22
2023-04-17T05:16:15.474Z,94245.91
2023-04-17T05:18:44.293Z,94247.53
2023-04-17T05:21:10.883Z,94258.09
2023-04-17T05:23:37.537Z,94258.09
2023-04-17T05:26:06.328Z,94256.28
2023-04-17T05:28:35.583Z,94258.09
2023-04-17T05:31:02.303Z,94249.59
2023-04-17T05:33:28.998Z,94251.22
2023-04-17T05:35:56.405Z,94251.22
2023-04-17T05:38:23.231Z,94248.00
2023-04-17T05:40:49.927Z,94253.84
2023-04-17T05:43:18.778Z,94251.22
2023-04-17T05:45:45.764Z,94254.91
2023-04-17T05:48:17.420Z,94261.78
2023-04-17T05:50:46.152Z,94258.59
2023-04-17T05:53:15.005Z,94256.50
2023-04-17T05:55:42.027Z,94261.78
2023-04-17T05:58:22.587Z,94267.09
2023-04-17T06:00:52.569Z,94267.09
2023-04-17T06:03:22.402Z,94263.88
2023-04-17T06:05:54.097Z,94271.59
2023-04-17T06:08:20.877Z,94276.63
2023-04-17T06:10:50.804Z,94268.13
2023-04-17T06:13:22.196Z,94271.28
2023-04-17T06:15:51.585Z,94279.28
2023-04-17T06:18:18.325Z,94279.28
2023-04-17T06:20:45.691Z,94276.91
2023-04-17T06:23:12.482Z,94282.19
2023-04-17T06:25:41.405Z,94288.28
2023-04-17T06:28:11.033Z,94292.78
2023-04-17T06:30:38.064Z,94290.13
2023-04-17T06:33:07.126Z,94298.06
2023-04-17T06:35:38.474Z,94295.66
2023-04-17T06:38:10.015Z,94295.16
2023-04-17T06:40:39.867Z,94295.41
2023-04-17T06:43:09.684Z,94298.84
2023-04-17T06:45:43.006Z,94300.47
2023-04-17T06:48:14.571Z,94285.56
2023-04-17T06:50:43.378Z,94296.22
2023-04-17T06:53:10.053Z,94288.28
2023-04-17T06:55:36.684Z,94295.41
2023-04-17T06:58:08.036Z,94293.56
2023-04-17T07:00:36.924Z,94294.38
2023-04-17T07:03:10.369Z,94293.56
2023-04-17T07:05:37.157Z,94293.56
2023-04-17T07:08:06.952Z,94294.38
2023-04-17T07:10:35.935Z,94294.13
2023-04-17T07:13:21.100Z,94297.81
2023-04-17T07:15:57.154Z,94299.41
2023-04-17T07:18:27.126Z,94302.06
2023-04-17T07:20:53.813Z,94304.47
2023-04-17T07:23:25.566Z,94301.03
2023-04-17T07:25:54.705Z,94305.28
2023-04-17T07:28:25.124Z,94307.34
2023-04-17T07:30:55.021Z,94309.00
2023-04-17T07:33:21.848Z,94302.66
2023-04-17T07:35:48.510Z,94298.41
2023-04-17T07:38:17.349Z,94299.41
2023-04-17T07:40:44.323Z,94298.13
2023-04-17T07:43:13.377Z,94305.28
2023-04-17T07:45:41.815Z,94298.97
2023-04-17T07:48:12.002Z,94305.28
2023-04-17T07:50:41.242Z,94301.59
2023-04-17T07:53:10.153Z,94310.31
2023-04-17T07:55:37.547Z,94313.78
2023-04-17T07:58:04.289Z,94303.69
2023-04-17T08:00:33.922Z,94312.19
2023-04-17T08:03:06.108Z,94306.91
2023-04-17T08:05:33.345Z,94313.78
2023-04-17T08:08:05.681Z,94311.88
2023-04-17T08:10:32.277Z,94312.19
2023-04-17T08:13:01.454Z,94310.09
2023-04-17T08:15:28.758Z,94311.16
2023-04-17T08:17:57.828Z,94307.34
2023-04-17T08:20:27.328Z,94315.88
2023-04-17T08:22:56.151Z,94316.44
2023-04-17T08:25:25.368Z,94317.47
2023-04-17T08:27:52.087Z,94319.31
2023-04-17T08:30:20.961Z,94321.19
2023-04-17T08:32:50.327Z,94320.13
2023-04-17T08:35:19.444Z,94312.19
2023-04-17T08:37:47.414Z,94317.47
2023-04-17T08:40:17.395Z,94324.38
2023-04-17T08:42:44.195Z,94320.34
2023-04-17T08:45:14.601Z,94314.84
2023-04-17T08:47:44.146Z,94316.44
2023-04-17T08:50:12.538Z,94315.63
2023-04-17T08:52:47.981Z,94317.47
2023-04-17T08:55:16.685Z,94312.19
2023-04-17T08:58:04.629Z,94315.41
2023-04-17T09:00:35.904Z,94312.19
2023-04-17T09:03:05.163Z,94316.44
2023-04-17T09:05:36.716Z,94319.09
2023-04-17T09:08:13.067Z,94319.09
2023-04-17T09:10:48.632Z,94309.00
2023-04-17T09:13:16.852Z,94315.41
2023-04-17T09:15:44.253Z,94310.09
2023-04-17T09:18:23.771Z,94312.50
2023-04-17T09:20:53.668Z,94309.84
2023-04-17T09:23:20.799Z,94311.69
2023-04-17T09:25:49.775Z,94309.06
2023-04-17T09:28:21.111Z,94299.50
2023-04-17T09:30:49.887Z,94299.50
2023-04-17T09:33:18.787Z,94308.50
2023-04-17T09:35:47.610Z,94318.03
2023-04-17T09:38:21.478Z,94319.09
2023-04-17T09:40:48.069Z,94326.22
2023-04-17T09:43:16.933Z,94323.56
2023-04-17T09:45:45.828Z,94320.13
2023-04-17T09:48:13.110Z,94319.09
2023-04-17T09:50:42.360Z,94319.09
2023-04-17T09:53:09.296Z,94321.19
2023-04-17T09:55:40.660Z,94319.09
2023-04-17T09:58:09.465Z,94317.47
2023-04-17T10:00:38.377Z,94313.78
2023-04-17T10:03:08.301Z,94309.28
2023-04-17T10:05:35.331Z,94311.69
2023-04-17T10:08:02.692Z,94311.16
2023-04-17T10:10:36.663Z,94302.66
2023-04-17T10:13:07.331Z,94304.81
2023-04-17T10:15:36.252Z,94295.81
2023-04-17T10:18:22.607Z,94290.53
2023-04-17T10:20:50.136Z,94294.53
2023-04-17T10:23:26.679Z,94300.63
2023-04-17T10:26:33.455Z,94288.44
2023-04-17T10:29:04.939Z,94293.72
2023-04-17T10:32:10.660Z,94295.34
2023-04-17T10:34:43.960Z,94287.94
2023-04-17T10:37:15.422Z,94280.56
2023-04-17T10:40:10.801Z,94284.91
2023-04-17T10:42:37.551Z,94275.91
2023-04-17T10:45:05.950Z,94276.41
2023-04-17T10:47:39.056Z,94285.41
2023-04-17T10:50:08.549Z,94276.88
2023-04-17T10:52:39.828Z,94281.16
2023-04-17T10:55:11.156Z,94281.16
2023-04-17T10:58:01.192Z,94275.03
2023-04-17T11:00:32.655Z,94272.38
2023-04-17T11:03:05.072Z,94271.56
2023-04-17T11:05:35.769Z,94268.91
2023-04-17T11:08:07.770Z,94269.97
2023-04-17T11:10:35.798Z,94266.75
2023-04-17T11:13:07.162Z,94274.47
2023-04-17T11:15:37.125Z,94267.59
2023-04-17T11:18:03.958Z,94267.59
2023-04-17T11:20:36.040Z,94265.97
2023-04-17T11:23:03.666Z,94264.38
2023-04-17T11:25:34.202Z,94267.81
2023-04-17T11:28:03.606Z,94269.41
2023-04-17T11:30:40.730Z,94267.25
2023-04-17T11:33:08.071Z,94262.78
2023-04-17T11:35:36.234Z,94272.56
2023-04-17T11:38:12.094Z,94267.25
2023-04-17T11:40:45.828Z,94260.91
2023-04-17T11:43:12.910Z,94266.22
2023-04-17T11:45:43.101Z,94256.44
2023-04-17T11:48:14.005Z,94252.97
2023-04-17T11:50:44.749Z,94250.31
2023-04-17T11:53:19.777Z,94243.97
2023-04-17T11:55:46.654Z,94238.38
2023-04-17T11:58:13.729Z,94235.50
2023-04-17T12:00:43.724Z,94248.50
2023-04-17T12:03:35.995Z,94238.69
2023-04-17T12:06:04.409Z,94237.09
2023-04-17T12:08:33.924Z,94241.59
2023-04-17T12:11:02.867Z,94235.50
2023-04-17T12:13:29.545Z,94237.09
2023-04-17T12:15:56.966Z,94231.00
2023-04-17T12:18:23.784Z,94237.09
2023-04-17T12:20:52.634Z,94228.09
2023-04-17T12:23:24.048Z,94221.19
2023-04-17T12:25:50.714Z,94227.31
2023-04-17T12:28:22.114Z,94228.91
2023-04-17T12:30:51.035Z,94228.09
2023-04-17T12:33:17.687Z,94224.91
2023-04-17T12:35:49.570Z,94227.31
2023-04-17T12:38:16.404Z,94223.63
2023-04-17T12:40:44.117Z,94223.28
2023-04-17T12:43:11.360Z,94230.75
2023-04-17T12:45:42.302Z,94223.63
2023-04-17T12:48:09.052Z,94228.09
2023-04-17T12:50:42.456Z,94232.34
2023-04-17T12:53:09.994Z,94229.69
2023-04-17T12:55:42.516Z,94225.44
2023-04-17T12:58:12.918Z,94229.69
2023-04-17T13:00:40.703Z,94221.19
2023-04-17T13:03:07.776Z,94229.69
2023-04-17T13:05:36.626Z,94231.31
2023-04-17T13:08:03.786Z,94227.59
2023-04-17T13:10:34.292Z,94228.41
2023-04-17T13:13:02.289Z,94222.56
2023-04-17T13:15:31.915Z,94223.91
2023-04-17T13:18:03.863Z,94221.53
2023-04-17T13:20:30.808Z,94223.13
2023-04-17T13:23:00.728Z,94223.91
2023-04-17T13:25:29.631Z,94213.31
2023-04-17T13:27:56.372Z,94213.31
2023-04-17T13:30:23.153Z,94217.59
2023-04-17T13:32:52.014Z,94204.38
2023-04-17T13:35:21.410Z,94209.66
2023-04-17T13:37:50.543Z,94208.03
2023-04-17T13:40:19.536Z,94205.38
2023-04-17T13:42:46.358Z,94209.66
2023-04-17T13:45:13.488Z,94203.78
2023-04-17T13:47:40.692Z,94208.03
2023-04-17T13:50:08.157Z,94209.88
2023-04-17T13:52:37.372Z,94215.75
2023-04-17T13:55:11.920Z,94209.66
2023-04-17T13:57:38.792Z,94210.44
2023-04-17T14:00:07.309Z,94209.66
2023-04-17T14:02:34.092Z,94208.03
2023-04-17T14:05:00.974Z,94201.94
2023-04-17T14:07:30.161Z,94204.59
2023-04-17T14:10:01.515Z,94197.69
2023-04-17T14:12:28.269Z,94209.66
2023-04-17T14:14:59.572Z,94207.25
2023-04-17T14:17:29.179Z,94208.03
2023-04-17T14:19:58.261Z,94204.81
2023-04-17T14:22:25.919Z,94208.03
2023-04-17T14:24:57.334Z,94210.13
2023-04-17T14:27:23.988Z,94206.44
2023-04-17T14:29:53.037Z,94215.97
2023-04-17T14:32:21.193Z,94203.78
2023-04-17T14:34:53.547Z,94206.44
2023-04-17T14:37:22.336Z,94213.31
2023-04-17T14:39:49.250Z,94207.47
2023-04-17T14:42:18.372Z,94211.72
2023-04-17T14:44:48.956Z,94215.41
2023-04-17T14:47:16.498Z,94211.72
2023-04-17T14:49:43.147Z,94217.84
2023-04-17T14:52:09.864Z,94217.84
2023-04-17T14:54:39.277Z,94211.72
2023-04-17T14:57:06.356Z,94220.72
2023-04-17T14:59:33.092Z,94217.00
2023-04-17T15:01:59.914Z,94217.84
2023-04-17T15:04:29.298Z,94220.25
2023-04-17T15:06:56.987Z,94214.38
2023-04-17T15:09:25.850Z,94203.72
2023-04-17T15:11:54.838Z,94199.53
2023-04-17T15:14:26.738Z,94211.97
2023-04-17T15:16:55.857Z,94205.63
2023-04-17T15:19:27.298Z,94210.13
2023-04-17T15:21:54.049Z,94210.94
2023-04-17T15:24:20.828Z,94212.53
2023-04-17T15:26:49.629Z,94211.72
2023-04-17T15:29:16.436Z,94208.28
2023-04-17T15:31:43.188Z,94206.69
2023-04-17T15:34:09.842Z,94204.03
2023-04-17T15:36:38.658Z,94207.47
2023-04-17T15:39:05.293Z,94210.13
2023-04-17T15:41:34.146Z,94201.63
2023-04-17T15:44:05.958Z,94203.22
2023-04-17T15:46:38.346Z,94204.03
2023-04-17T15:49:21.452Z,94206.44
2023-04-17T15:51:48.271Z,94206.91
2023-04-17T15:54:18.454Z,94205.88
2023-04-17T15:56:45.059Z,94211.16
2023-04-17T15:59:14.136Z,94204.28
2023-04-17T16:01:43.732Z,94206.91
2023-04-17T16:04:10.662Z,94210.94
2023-04-17T16:06:40.624Z,94214.88
2023-04-17T16:09:07.342Z,94209.81
2023-04-17T16:11:55.056Z,94222.81
2023-04-17T16:14:21.741Z,94210.63
2023-04-17T16:16:48.400Z,94218.56
2023-04-17T16:19:17.273Z,94218.56
2023-04-17T16:21:44.425Z,94216.94
2023-04-17T16:24:13.274Z,94213.25
2023-04-17T16:26:41.296Z,94222.81
2023-04-17T16:29:13.507Z,94224.91
2023-04-17T16:31:41.521Z,94230.75
2023-04-17T16:34:12.437Z,94232.84
2023-04-17T16:36:45.196Z,94232.59
2023-04-17T16:39:12.622Z,94230.19
2023-04-17T16:41:39.490Z,94237.09
2023-04-17T16:44:06.270Z,94237.09
2023-04-17T16:46:52.184Z,94243.19
2023-04-17T16:49:21.731Z,94243.97
2023-04-17T16:51:50.554Z,94244.47
2023-04-17T16:54:18.765Z,94242.88
2023-04-17T16:56:47.685Z,94241.59
2023-04-17T16:59:19.118Z,94245.53
2023-04-17T17:01:49.974Z,94249.78
2023-04-17T17:04:16.740Z,94255.84
2023-04-17T17:06:48.102Z,94258.28
2023-04-17T17:09:16.984Z,94264.59
2023-04-17T17:11:43.647Z,94266.69
2023-04-17T17:14:12.410Z,94270.94
2023-04-17T17:16:40.875Z,94275.44
2023-04-17T17:19:07.609Z,94280.72
2023-04-17T17:21:39.305Z,94288.66
2023-04-17T17:24:06.290Z,94285.22
2023-04-17T17:26:33.064Z,94292.91
2023-04-17T17:28:59.972Z,94295.81
2023-04-17T17:31:26.637Z,94301.13
2023-04-17T17:33:55.850Z,94301.13
2023-04-17T17:36:22.523Z,94308.50
2023-04-17T17:38:55.748Z,94310.88
2023-04-17T17:41:28.391Z,94302.06
2023-04-17T17:43:58.245Z,94319.66
2023-04-17T17:46:25.099Z,94320.69
2023-04-17T17:48:53.946Z,94320.69
2023-04-17T17:51:22.621Z,94325.97
2023-04-17T17:53:49.581Z,94327.03
2023-04-17T17:56:16.220Z,94328.63
2023-04-17T17:58:42.981Z,94331.28
2023-04-17T18:01:10.986Z,94334.97
2023-04-17T18:03:37.960Z,94337.06
2023-04-17T18:06:06.881Z,94343.97
2023-04-17T18:08:36.543Z,94345.56
2023-04-17T18:11:07.885Z,94349.25
2023-04-17T18:13:34.586Z,94348.09
2023-04-17T18:16:05.736Z,94351.78
2023-04-17T18:18:33.281Z,94357.97
2023-04-17T18:20:59.980Z,94358.25
2023-04-17T18:23:26.736Z,94359.84
2023-04-17T18:26:15.422Z,94368.81
2023-04-17T18:28:48.564Z,94373.06
2023-04-17T18:31:15.901Z,94373.06
2023-04-17T18:33:42.503Z,94373.63
2023-04-17T18:36:10.551Z,94374.91
2023-04-17T18:38:39.703Z,94374.91
2023-04-17T18:41:06.400Z,94386.31
2023-04-17T18:43:37.728Z,94382.84
2023-04-17T18:46:07.464Z,94384.13
2023-04-17T18:48:36.487Z,94395.28
2023-04-17T18:51:12.728Z,94399.56
2023-04-17T18:53:41.909Z,94386.75
2023-04-17T18:56:10.753Z,94391.59
2023-04-17T18:58:40.181Z,94389.41
2023-04-17T19:01:08.880Z,94392.88
2023-04-17T19:03:35.746Z,94391.84
2023-04-17T19:06:02.627Z,94395.28
2023-04-17T19:08:31.518Z,94395.28
2023-04-17T19:11:02.834Z,94387.03
2023-04-17T19:13:29.498Z,94392.06
2023-04-17T19:15:58.934Z,94387.59
2023-04-17T19:18:29.483Z,94388.41
2023-04-17T19:20:56.245Z,94388.41
2023-04-17T19:23:25.687Z,94386.75
2023-04-17T19:25:55.232Z,94392.66
2023-04-17T19:28:28.464Z,94399.00
2023-04-17T19:31:00.856Z,94399.00
2023-04-17T19:33:29.047Z,94401.88
2023-04-17T19:35:55.740Z,94393.91
2023-04-17T19:38:22.485Z,94390.47
2023-04-17T19:41:20.820Z,94392.06
2023-04-17T19:43:54.320Z,94386.75
2023-04-17T19:46:21.779Z,94400.25
2023-04-17T19:48:50.777Z,94395.75
2023-04-17T19:51:17.545Z,94388.84
2023-04-17T19:53:44.673Z,94399.44
2023-04-17T19:56:13.780Z,94390.47
2023-04-17T19:58:42.804Z,94401.03
2023-04-17T20:01:11.622Z,94395.75
2023-04-17T20:03:42.269Z,94388.06
2023-04-17T20:06:13.941Z,94397.63
2023-04-17T20:08:42.943Z,94405.56
2023-04-17T20:11:12.075Z,94398.66
2023-04-17T20:13:39.098Z,94394.16
2023-04-17T20:16:08.469Z,94395.44
2023-04-17T20:18:37.491Z,94398.66
2023-04-17T20:21:05.951Z,94392.53
2023-04-17T20:23:35.350Z,94395.75
2023-04-17T20:26:23.638Z,94394.16
2023-04-17T20:28:54.742Z,94394.63
2023-04-17T20:31:21.450Z,94401.53
2023-04-17T20:33:48.164Z,94396.50
2023-04-17T20:36:17.129Z,94404.19
2023-04-17T20:38:49.089Z,94406.81
2023-04-17T20:41:21.023Z,94405.22
2023-04-17T20:43:57.239Z,94398.81
2023-04-17T20:46:24.014Z,94405.22
2023-04-17T20:48:52.826Z,94403.63
2023-04-17T20:51:24.852Z,94406.81
2023-04-17T20:53:54.214Z,94405.22
2023-04-17T20:56:24.047Z,94400.75
2023-04-17T20:58:56.052Z,94396.22
2023-04-17T21:01:25.524Z,94401.53
2023-04-17T21:03:54.464Z,94399.13
2023-04-17T21:06:26.900Z,94407.63
2023-04-17T21:08:54.029Z,94401.78
2023-04-17T21:11:21.528Z,94398.88
2023-04-17T21:13:53.566Z,94402.56
2023-04-17T21:16:25.319Z,94404.19
2023-04-17T21:18:57.911Z,94397.28
2023-04-17T21:21:29.753Z,94393.03
2023-04-17T21:23:56.364Z,94404.19
2023-04-17T21:26:28.131Z,94398.31
2023-04-17T21:28:54.827Z,94388.78
2023-04-17T21:31:21.574Z,94401.78
2023-04-17T21:33:53.018Z,94403.13
2023-04-17T21:36:24.896Z,94402.78
2023-04-17T21:38:53.767Z,94409.72
2023-04-17T21:41:20.487Z,94405.22
2023-04-17T21:43:52.268Z,94398.31
2023-04-17T21:46:19.196Z,94399.13
2023-04-17T21:48:48.007Z,94396.38
2023-04-17T21:51:19.858Z,94407.06
2023-04-17T21:53:46.581Z,94406.25
2023-04-17T21:56:13.372Z,94402.78
2023-04-17T21:58:40.110Z,94397.50
2023-04-17T22:01:09.053Z,94403.63
2023-04-17T22:03:35.805Z,94394.06
2023-04-17T22:06:04.660Z,94397.28
2023-04-17T22:08:31.399Z,94398.31
2023-04-17T22:11:00.753Z,94396.72
2023-04-17T22:13:29.583Z,94399.91
2023-04-17T22:15:58.275Z,94388.44
2023-04-17T22:18:28.481Z,94397.19
2023-04-17T22:20:57.293Z,94400.16
2023-04-17T22:23:28.636Z,94396.72
2023-04-17T22:25:57.482Z,94397.75
2023-04-17T22:28:26.354Z,94396.72
2023-04-17T22:30:58.327Z,94398.31
2023-04-17T22:33:27.190Z,94398.31
2023-04-17T22:35:53.920Z,94396.72
2023-04-17T22:38:23.224Z,94402.78
2023-04-17T22:40:52.968Z,94402.78
2023-04-17T22:43:21.738Z,94403.63
2023-04-17T22:45:48.389Z,94408.09
2023-04-17T22:48:15.110Z,94406.50
2023-04-17T22:50:46.874Z,94399.59
2023-04-17T22:53:15.742Z,94406.03
2023-04-17T22:55:47.172Z,94399.84
2023-04-17T22:58:13.867Z,94400.41
2023-04-17T23:00:42.787Z,94408.91
2023-04-17T23:03:14.564Z,94399.38
2023-04-17T23:05:41.368Z,94402.00
2023-04-17T23:08:08.228Z,94398.81
2023-04-17T23:10:37.110Z,94399.91
2023-04-17T23:13:05.873Z,94395.91
2023-04-17T23:15:36.228Z,94402.00
2023-04-17T23:18:02.947Z,94395.13
2023-04-17T23:20:29.608Z,94393.50
2023-04-17T23:22:56.218Z,94393.50
2023-04-17T23:25:25.036Z,94390.03
2023-04-17T23:27:53.825Z,94389.81
2023-04-17T23:30:23.188Z,94396.72
2023-04-17T23:32:52.165Z,94396.16
2023-04-17T23:35:22.603Z,94398.81
2023-04-17T23:37:49.395Z,94398.81
2023-04-17T23:40:16.187Z,94405.69
2023-04-17T23:42:45.056Z,94400.88
2023-04-17T23:45:11.833Z,94413.63
2023-04-17T23:47:40.641Z,94405.69
2023-04-17T23:50:07.952Z,94410.19
2023-04-17T23:52:34.637Z,94410.19
2023-04-17T23:55:03.801Z,94405.69
2023-04-17T23:57:35.550Z,94410.19
